Time;durP1;ratioP1;P1;durP2;ratioP2;P2;SDS_P1;SDS_P2;PMS_P1;PMS_P2;Temp;Humidity;BMP_temperature;BMP_pressure;BME280_temperature;BME280_humidity;BME280_pressure;Samples;Min_cycle;Max_cycle;Signal;HPM_P1;HPM_P2
2021/12/20 00:00:19;;;;;;;12.23;3.65;;;;;;;5.34;92.85;102800.56;4997639;28;20093;-65
2021/12/20 00:02:51;;;;;;;9.30;3.10;;;;;;;5.30;92.69;102799.81;5005848;28;20053;-65
2021/12/20 00:05:18;;;;;;;11.68;3.38;;;;;;;5.31;92.84;102801.50;4997422;28;20031;-65
2021/12/20 00:07:44;;;;;;;10.50;3.22;;;;;;;5.32;92.96;102785.16;5003188;28;20458;-66
2021/12/20 00:10:10;;;;;;;12.10;3.30;;;;;;;5.33;92.68;102797.16;5009310;28;20022;-66
2021/12/20 00:12:35;;;;;;;9.82;3.25;;;;;;;5.31;92.50;102793.78;5002115;28;20084;-65
2021/12/20 00:15:00;;;;;;;14.13;4.55;;;;;;;5.32;92.59;102798.03;5008597;28;20022;-65
2021/12/20 00:17:26;;;;;;;14.05;4.90;;;;;;;5.31;93.19;102798.91;4996463;28;20034;-67
2021/12/20 00:19:51;;;;;;;12.15;4.63;;;;;;;5.29;93.08;102795.56;4998744;28;20032;-66
2021/12/20 00:22:17;;;;;;;13.13;4.93;;;;;;;5.30;92.86;102786.94;5004827;28;20037;-65
2021/12/20 00:24:43;;;;;;;14.30;4.75;;;;;;;5.30;92.67;102792.09;4993782;28;20037;-66
2021/12/20 00:27:10;;;;;;;12.43;4.75;;;;;;;5.26;92.98;102793.06;5008736;28;20103;-66
2021/12/20 00:29:36;;;;;;;10.73;4.00;;;;;;;5.28;92.97;102793.03;5009532;28;20080;-66
2021/12/20 00:32:02;;;;;;;12.57;4.40;;;;;;;5.28;92.57;102783.59;5007468;28;20038;-66
2021/12/20 00:34:27;;;;;;;11.18;3.33;;;;;;;5.26;92.49;102790.47;5003592;28;20029;-66
2021/12/20 00:37:01;;;;;;;10.73;3.22;;;;;;;5.26;91.88;102795.63;5000932;28;20038;-68
2021/12/20 00:42:11;;;;;;;11.27;3.10;;;;;;;5.24;91.69;102784.53;5004267;28;20630;-66
2021/12/20 00:44:36;;;;;;;12.05;3.10;;;;;;;5.23;91.72;102785.44;5002591;28;20038;-66
2021/12/20 00:47:02;;;;;;;10.52;2.97;;;;;;;5.24;91.12;102787.13;5003078;28;20371;-66
2021/12/20 00:49:28;;;;;;;12.13;3.15;;;;;;;5.25;90.94;102778.50;4998888;28;20117;-68
2021/12/20 00:51:53;;;;;;;11.60;2.75;;;;;;;5.22;90.71;102778.59;4994169;28;20073;-65
2021/12/20 00:54:18;;;;;;;12.68;3.03;;;;;;;5.23;90.32;102775.16;5003261;28;20459;-66
2021/12/20 00:56:44;;;;;;;13.77;3.10;;;;;;;5.23;89.77;102779.44;5013300;28;20062;-65
2021/12/20 00:59:09;;;;;;;16.30;4.15;;;;;;;5.22;89.32;102783.75;4999730;28;20037;-67
2021/12/20 01:01:34;;;;;;;16.17;3.17;;;;;;;5.22;89.37;102788.91;5011653;28;20061;-65
2021/12/20 01:04:00;;;;;;;15.95;3.13;;;;;;;5.21;89.28;102787.19;5005776;28;20561;-65
2021/12/20 01:06:25;;;;;;;15.80;3.55;;;;;;;5.22;89.29;102783.75;5007624;28;20465;-65
2021/12/20 01:08:51;;;;;;;14.63;3.13;;;;;;;5.18;89.15;102779.56;5006254;28;20126;-66
2021/12/20 01:11:22;;;;;;;14.68;3.22;;;;;;;5.18;89.30;102784.72;5000664;28;20449;-66
2021/12/20 01:13:48;;;;;;;13.90;3.30;;;;;;;5.18;89.10;102787.28;5003742;28;20134;-66
2021/12/20 01:16:13;;;;;;;18.92;3.80;;;;;;;5.16;87.17;102786.50;4994373;28;20490;-65
2021/12/20 01:18:39;;;;;;;16.83;3.00;;;;;;;5.16;87.07;102783.94;5012300;28;20347;-65
2021/12/20 01:21:05;;;;;;;15.20;3.65;;;;;;;5.15;87.29;102789.09;4998919;28;20118;-65
2021/12/20 01:23:31;;;;;;;14.10;3.35;;;;;;;5.15;87.56;102782.22;5005236;28;20466;-65
2021/12/20 01:25:56;;;;;;;14.90;3.70;;;;;;;5.15;86.20;102782.22;5010741;28;20033;-65
2021/12/20 01:28:22;;;;;;;16.88;3.55;;;;;;;5.13;85.36;102784.00;4999468;28;20030;-65
2021/12/20 01:30:48;;;;;;;16.83;3.63;;;;;;;5.12;85.77;102782.31;4993573;28;20041;-65
2021/12/20 01:33:13;;;;;;;15.38;3.53;;;;;;;5.11;85.21;102783.19;4997336;28;20034;-66
2021/12/20 01:35:39;;;;;;;18.63;3.78;;;;;;;5.13;84.84;102773.72;5010313;28;20497;-67
2021/12/20 01:38:06;;;;;;;18.38;3.95;;;;;;;5.11;84.89;102778.06;5000248;28;20036;-66
2021/12/20 01:40:32;;;;;;;15.73;3.67;;;;;;;5.06;84.94;102777.34;4991720;28;20026;-66
2021/12/20 01:42:58;;;;;;;15.90;3.67;;;;;;;5.05;84.70;102775.66;4997172;28;20033;-67
2021/12/20 01:45:25;;;;;;;14.93;3.22;;;;;;;5.05;85.46;102773.09;5002202;28;20027;-68
2021/12/20 01:48:01;;;;;;;16.60;4.55;;;;;;;5.05;84.37;102770.50;4993251;28;20030;-66
2021/12/20 01:53:12;;;;;;;15.43;3.83;;;;;;;5.03;84.30;102772.25;4994970;28;20382;-65
2021/12/20 01:55:38;;;;;;;19.67;4.35;;;;;;;5.01;85.39;102769.75;5000299;28;20025;-65
2021/12/20 01:58:04;;;;;;;16.88;3.90;;;;;;;5.02;84.08;102775.72;4995960;28;20787;-65
2021/12/20 02:00:30;;;;;;;16.35;3.25;;;;;;;4.98;84.79;102779.25;5004246;28;20105;-65
2021/12/20 02:03:01;;;;;;;15.93;3.25;;;;;;;4.99;84.42;102766.38;4997062;28;20025;-65
2021/12/20 02:05:48;;;;;;;20.20;4.30;;;;;;;4.97;84.88;102767.28;4991522;28;20450;-64
2021/12/20 02:08:28;;;;;;;15.45;3.92;;;;;;;4.96;84.56;102768.19;4993679;28;20025;-64
2021/12/20 02:10:59;;;;;;;17.90;3.90;;;;;;;4.93;84.69;102761.41;4974511;28;20026;-64
2021/12/20 02:13:28;;;;;;;16.70;3.53;;;;;;;4.95;85.01;102779.34;4992537;28;20026;-64
2021/12/20 02:15:55;;;;;;;15.02;3.00;;;;;;;4.93;85.21;102760.53;5008055;28;20416;-64
2021/12/20 02:18:21;;;;;;;21.05;3.63;;;;;;;4.92;84.98;102776.84;4996985;28;20033;-64
2021/12/20 02:20:46;;;;;;;16.88;2.95;;;;;;;4.92;85.19;102764.00;4987046;28;20120;-64
2021/12/20 02:23:12;;;;;;;14.65;3.38;;;;;;;4.93;85.02;102765.69;4993641;28;20030;-64
2021/12/20 02:25:37;;;;;;;16.27;3.17;;;;;;;4.92;84.86;102764.00;4993015;28;20106;-63
2021/12/20 02:28:07;;;;;;;14.77;3.15;;;;;;;4.93;85.65;102770.81;5010730;28;20501;-64
2021/12/20 02:38:35;;;;;;;17.10;4.10;;;;;;;4.90;84.85;102756.34;5003577;28;20501;-64
2021/12/20 02:41:06;;;;;;;18.05;4.03;;;;;;;4.93;85.67;102760.53;5007208;28;20021;-64
2021/12/20 02:43:38;;;;;;;18.05;4.15;;;;;;;4.89;85.32;102761.53;4998680;28;20490;-64
2021/12/20 02:46:07;;;;;;;17.48;4.32;;;;;;;4.88;85.25;102762.41;4991563;28;20033;-64
2021/12/20 02:48:33;;;;;;;18.17;3.97;;;;;;;4.88;85.76;102765.81;5005486;28;20036;-65
2021/12/20 02:50:58;;;;;;;16.77;4.10;;;;;;;4.92;85.62;102751.13;5010412;28;20029;-65
2021/12/20 02:53:23;;;;;;;16.17;3.97;;;;;;;4.89;85.62;102753.81;4990180;28;20029;-66
2021/12/20 02:55:49;;;;;;;17.13;4.13;;;;;;;4.87;85.55;102758.13;5008662;28;20057;-64
2021/12/20 02:58:15;;;;;;;15.80;3.47;;;;;;;4.87;84.97;102760.69;5008205;28;20033;-64
2021/12/20 03:00:40;;;;;;;17.20;3.33;;;;;;;4.87;85.03;102760.69;5007648;28;20485;-64
2021/12/20 03:03:07;;;;;;;17.60;3.65;;;;;;;4.85;85.32;102765.06;5002422;28;20040;-64
2021/12/20 03:05:33;;;;;;;19.83;3.63;;;;;;;4.86;85.45;102759.03;5002230;28;20096;-65
2021/12/20 03:07:58;;;;;;;19.77;3.70;;;;;;;4.87;85.41;102750.41;5001379;28;20486;-64
2021/12/20 03:10:26;;;;;;;19.23;4.00;;;;;;;4.85;84.77;102749.63;5001285;28;20356;-64
2021/12/20 03:12:52;;;;;;;16.75;3.85;;;;;;;4.82;85.65;102745.41;4991967;28;20069;-64
2021/12/20 03:15:23;;;;;;;19.88;4.07;;;;;;;4.82;85.63;102759.97;4991900;28;20034;-64
2021/12/20 03:17:48;;;;;;;19.98;3.90;;;;;;;4.82;85.37;102758.28;4992498;28;20038;-63
2021/12/20 03:20:14;;;;;;;17.45;3.80;;;;;;;4.82;85.81;102767.69;4996818;28;20022;-65
2021/12/20 03:22:41;;;;;;;18.95;4.25;;;;;;;4.81;86.25;102761.69;5007308;28;20497;-63
2021/12/20 03:25:07;;;;;;;18.45;3.85;;;;;;;4.82;85.66;102752.25;4994194;28;20113;-64
2021/12/20 03:27:33;;;;;;;20.63;4.13;;;;;;;4.83;85.33;102759.13;5001844;28;20133;-64
2021/12/20 03:29:58;;;;;;;19.15;4.00;;;;;;;4.83;85.41;102761.69;5010317;28;20045;-64
2021/12/20 03:32:23;;;;;;;17.70;3.83;;;;;;;4.81;86.05;102766.84;5002759;28;20060;-66
2021/12/20 03:34:49;;;;;;;20.40;3.85;;;;;;;4.82;86.41;102762.53;5010411;28;20022;-63
2021/12/20 03:37:14;;;;;;;17.23;3.92;;;;;;;4.80;85.78;102755.72;5008629;28;20497;-64
2021/12/20 03:39:39;;;;;;;17.40;3.75;;;;;;;4.79;85.22;102759.19;4996328;28;20026;-64
2021/12/20 03:42:05;;;;;;;18.75;3.90;;;;;;;4.78;85.44;102757.50;4998742;28;20471;-64
2021/12/20 03:44:33;;;;;;;19.08;3.88;;;;;;;4.79;84.94;102753.19;5005580;28;20033;-65
2021/12/20 03:47:00;;;;;;;19.48;4.00;;;;;;;4.75;85.77;102762.72;5004711;28;20474;-65
2021/12/20 03:49:25;;;;;;;17.85;3.78;;;;;;;4.74;85.22;102761.03;5008389;28;20422;-64
2021/12/20 03:51:51;;;;;;;18.92;4.18;;;;;;;4.75;85.24;102752.41;4999341;28;20022;-64
2021/12/20 03:54:16;;;;;;;18.60;3.63;;;;;;;4.75;84.97;102761.88;4991169;28;20100;-64
2021/12/20 03:56:41;;;;;;;18.73;3.80;;;;;;;4.72;85.46;102749.94;5006889;28;20058;-65
2021/12/20 03:59:07;;;;;;;18.45;4.07;;;;;;;4.73;84.27;102751.63;4995373;28;20327;-64
2021/12/20 04:01:32;;;;;;;17.60;3.58;;;;;;;4.71;84.78;102758.56;5007377;28;20034;-64
2021/12/20 04:04:00;;;;;;;23.23;4.70;;;;;;;4.71;85.37;102761.13;5008630;28;20025;-64
2021/12/20 04:06:26;;;;;;;20.13;3.77;;;;;;;4.72;83.89;102757.66;5010093;28;20389;-64
2021/12/20 04:08:52;;;;;;;22.63;5.03;;;;;;;4.69;83.05;102757.72;5007788;28;20022;-64
2021/12/20 04:11:17;;;;;;;17.35;4.00;;;;;;;4.69;83.41;102762.88;5000534;28;20030;-64
2021/12/20 04:13:43;;;;;;;19.67;3.88;;;;;;;4.71;83.48;102750.84;4997743;28;20034;-64
2021/12/20 04:16:08;;;;;;;18.48;4.35;;;;;;;4.67;84.34;102754.38;5001027;28;20030;-64
2021/12/20 04:18:33;;;;;;;20.58;4.05;;;;;;;4.70;83.73;102744.03;4995689;28;20024;-66
2021/12/20 04:20:59;;;;;;;19.67;3.75;;;;;;;4.69;84.28;102752.59;5001604;28;20030;-64
2021/12/20 04:23:24;;;;;;;17.48;3.60;;;;;;;4.68;84.05;102744.94;5009180;28;20021;-64
2021/12/20 04:25:49;;;;;;;23.50;4.13;;;;;;;4.66;83.68;102757.81;4992168;28;20382;-64
2021/12/20 04:28:15;;;;;;;20.80;3.67;;;;;;;4.64;83.52;102759.56;5003633;28;20034;-64
2021/12/20 04:30:40;;;;;;;18.42;4.43;;;;;;;4.67;83.39;102753.53;4994672;28;20031;-65
2021/12/20 04:33:05;;;;;;;20.67;4.53;;;;;;;4.62;82.72;102756.22;5010195;28;20417;-64
2021/12/20 04:35:32;;;;;;;19.27;4.25;;;;;;;4.61;82.31;102759.66;5013158;28;20033;-64
2021/12/20 04:37:59;;;;;;;19.67;3.90;;;;;;;4.60;82.90;102757.16;5011285;28;20034;-64
2021/12/20 04:40:25;;;;;;;21.92;4.55;;;;;;;4.64;82.27;102748.44;4995545;28;20605;-64
2021/12/20 04:42:54;;;;;;;17.85;4.15;;;;;;;4.58;83.16;102748.59;5008034;28;20034;-64
2021/12/20 04:45:19;;;;;;;;;;;;;;;4.73;84.00;102754.22;5009131;28;20113;-64
2021/12/20 04:47:45;;;;;;;19.17;3.95;;;;;;;4.60;82.13;102750.28;5005680;28;20004;-64
2021/12/20 04:50:11;;;;;;;16.50;3.80;;;;;;;4.61;82.37;102748.53;5003474;28;20068;-64
2021/12/20 04:52:36;;;;;;;19.48;4.80;;;;;;;4.59;82.74;102751.16;4999785;28;20064;-64
2021/12/20 04:55:04;;;;;;;20.30;4.38;;;;;;;4.59;82.83;102753.72;5005705;28;20065;-65
2021/12/20 04:57:29;;;;;;;22.95;4.55;;;;;;;4.58;83.33;102749.44;5005032;28;20058;-64
2021/12/20 04:59:55;;;;;;;19.48;4.05;;;;;;;4.59;83.28;102745.16;5004564;28;20390;-64
2021/12/20 05:02:20;;;;;;;16.63;3.72;;;;;;;4.58;83.11;102754.59;5011564;28;20493;-64
2021/12/20 05:04:45;;;;;;;18.08;4.40;;;;;;;4.57;82.94;102750.34;5010607;28;20029;-64
2021/12/20 05:07:12;;;;;;;21.20;4.28;;;;;;;4.48;82.28;102743.72;5009284;28;20022;-64
2021/12/20 05:09:39;;;;;;;20.08;4.32;;;;;;;4.56;82.44;102755.53;5011109;28;20029;-65
2021/12/20 05:12:14;;;;;;;17.70;4.38;;;;;;;4.55;81.87;102764.97;5006488;28;20029;-64
2021/12/20 05:14:41;;;;;;;18.70;3.83;;;;;;;4.55;81.84;102759.81;5001200;28;20034;-64
2021/12/20 05:17:08;;;;;;;17.42;4.13;;;;;;;4.57;80.84;102763.19;5009404;28;20017;-64
2021/12/20 05:19:33;;;;;;;21.30;3.97;;;;;;;4.53;81.92;102764.16;5011825;28;20030;-64
2021/12/20 05:21:59;;;;;;;20.35;4.63;;;;;;;4.50;81.86;102761.66;5007382;28;20026;-64
2021/12/20 05:24:24;;;;;;;19.50;4.82;;;;;;;4.52;81.75;102754.75;5005983;28;20065;-64
2021/12/20 05:26:50;;;;;;;20.42;4.43;;;;;;;4.50;81.01;102759.09;5010647;28;20022;-65
2021/12/20 05:29:15;;;;;;;20.52;5.05;;;;;;;4.53;81.68;102756.47;5008761;28;20359;-64
2021/12/20 05:31:40;;;;;;;19.52;4.38;;;;;;;4.50;81.66;102757.38;5005336;28;20472;-64
2021/12/20 05:34:06;;;;;;;20.30;4.70;;;;;;;4.50;81.11;102762.50;5009934;28;20032;-64
2021/12/20 05:36:31;;;;;;;19.38;4.07;;;;;;;4.50;82.43;102761.66;5006542;28;20485;-64
2021/12/20 05:38:56;;;;;;;22.60;4.28;;;;;;;4.48;82.13;102766.00;4986587;28;20381;-65
2021/12/20 05:41:22;;;;;;;17.60;4.40;;;;;;;4.50;81.67;102766.81;4999570;28;20049;-65
2021/12/20 05:43:48;;;;;;;21.10;4.72;;;;;;;4.48;80.99;102768.56;4997973;28;20026;-65
2021/12/20 05:46:14;;;;;;;15.68;4.40;;;;;;;4.49;80.83;102767.69;4996507;28;20034;-66
2021/12/20 05:48:39;;;;;;;19.38;4.28;;;;;;;4.46;81.46;102770.31;5002773;28;20037;-65
2021/12/20 05:51:04;;;;;;;20.75;4.32;;;;;;;4.45;81.34;102758.38;5001871;28;20124;-65
2021/12/20 05:53:30;;;;;;;19.05;4.90;;;;;;;4.44;82.44;102751.53;5007962;28;20037;-65
2021/12/20 05:55:55;;;;;;;19.30;4.50;;;;;;;4.43;81.45;102766.13;4992318;28;20490;-65
2021/12/20 05:58:20;;;;;;;19.10;4.32;;;;;;;4.41;82.31;102767.00;5006972;28;20032;-65
2021/12/20 06:00:46;;;;;;;23.08;4.30;;;;;;;4.43;82.10;102766.13;5006751;28;20030;-65
2021/12/20 06:03:11;;;;;;;19.75;4.55;;;;;;;4.44;82.13;102766.97;5008598;28;20030;-66
2021/12/20 06:05:41;;;;;;;20.55;5.15;;;;;;;4.42;82.23;102763.59;5007552;28;20061;-64
2021/12/20 06:08:07;;;;;;;19.00;4.63;;;;;;;4.46;82.57;102765.19;4992871;28;20470;-65
2021/12/20 06:10:32;;;;;;;22.08;4.68;;;;;;;4.43;82.26;102765.28;5007127;28;20029;-65
2021/12/20 06:12:58;;;;;;;21.17;5.18;;;;;;;4.45;81.28;102755.78;5007497;28;20470;-65
2021/12/20 06:15:23;;;;;;;23.23;5.22;;;;;;;4.41;82.01;102752.44;5010285;28;20322;-64
2021/12/20 06:17:48;;;;;;;20.00;5.05;;;;;;;4.47;82.39;102772.00;5008304;28;20069;-65
2021/12/20 06:20:14;;;;;;;22.08;5.22;;;;;;;4.42;82.28;102773.88;5007137;28;20562;-65
2021/12/20 06:22:40;;;;;;;22.33;4.95;;;;;;;4.43;81.84;102775.56;5010504;28;20441;-65
2021/12/20 06:25:06;;;;;;;22.70;4.45;;;;;;;4.42;81.61;102779.84;5009007;28;21473;-65
2021/12/20 06:27:32;;;;;;;19.27;5.05;;;;;;;4.41;81.87;102782.44;5007865;28;20025;-64
2021/12/20 06:29:57;;;;;;;19.52;4.25;;;;;;;4.37;82.02;102778.28;5003394;28;20071;-65
2021/12/20 06:32:23;;;;;;;19.98;5.03;;;;;;;4.39;82.83;102779.91;4994674;28;20057;-64
2021/12/20 06:34:48;;;;;;;24.27;5.18;;;;;;;4.39;83.43;102779.06;4998461;28;20026;-65
2021/12/20 06:37:14;;;;;;;17.83;4.40;;;;;;;4.41;82.06;102787.56;4995365;28;20073;-65
2021/12/20 06:39:40;;;;;;;17.25;3.92;;;;;;;4.39;80.88;102784.19;5007604;28;20493;-65
2021/12/20 06:42:05;;;;;;;18.63;4.63;;;;;;;4.37;81.29;102785.97;5008596;28;20116;-65
2021/12/20 06:44:31;;;;;;;20.67;4.35;;;;;;;4.37;80.85;102786.81;5006557;28;20529;-65
2021/12/20 06:46:57;;;;;;;18.13;4.03;;;;;;;4.38;80.58;102793.63;5008383;28;20429;-65
2021/12/20 06:49:23;;;;;;;23.17;4.20;;;;;;;4.39;81.09;102794.47;4975121;28;20037;-66
2021/12/20 06:51:48;;;;;;;18.25;4.05;;;;;;;4.36;80.87;102784.25;5003024;28;20030;-64
2021/12/20 06:54:16;;;;;;;17.00;4.43;;;;;;;4.36;81.02;102790.28;5003189;28;20045;-65
2021/12/20 06:56:43;;;;;;;20.70;4.13;;;;;;;4.37;81.76;102791.13;5002949;28;20057;-64
2021/12/20 06:59:08;;;;;;;20.77;4.32;;;;;;;4.37;81.31;102801.38;5001037;28;20022;-64
2021/12/20 07:01:34;;;;;;;20.02;4.40;;;;;;;4.36;81.53;102800.56;5006125;28;20029;-65
2021/12/20 07:04:01;;;;;;;20.83;4.70;;;;;;;4.36;82.04;102804.81;5002946;28;20276;-65
2021/12/20 07:06:28;;;;;;;16.00;4.55;;;;;;;4.35;82.01;102803.13;5004753;28;20041;-65
2021/12/20 07:08:53;;;;;;;18.33;4.50;;;;;;;4.34;82.29;102801.44;5010593;28;20036;-65
2021/12/20 07:11:19;;;;;;;19.00;4.72;;;;;;;4.36;82.05;102802.25;4996307;28;20367;-65
2021/12/20 07:13:45;;;;;;;18.02;4.25;;;;;;;4.33;82.01;102799.78;5000308;28;20474;-64
2021/12/20 07:16:11;;;;;;;15.60;4.13;;;;;;;4.29;82.96;102808.41;5003182;28;20026;-66
2021/12/20 07:18:37;;;;;;;21.02;4.63;;;;;;;4.30;83.18;102804.97;5009332;28;20022;-67
2021/12/20 07:21:02;;;;;;;19.48;4.72;;;;;;;4.33;82.89;102807.47;4997038;28;20481;-65
2021/12/20 07:23:28;;;;;;;21.55;5.60;;;;;;;4.33;83.22;102804.91;4993026;28;20057;-64
2021/12/20 07:25:53;;;;;;;17.48;5.25;;;;;;;4.29;83.45;102804.13;5002821;28;20494;-66
2021/12/20 07:28:19;;;;;;;20.85;5.85;;;;;;;4.29;84.13;102804.13;4999147;28;20037;-66
2021/12/20 07:30:45;;;;;;;24.40;6.32;;;;;;;4.29;83.67;102810.97;5008280;28;20064;-65
2021/12/20 07:33:11;;;;;;;19.75;6.45;;;;;;;4.29;83.57;102810.97;5007594;28;20038;-66
2021/12/20 07:35:37;;;;;;;21.13;5.40;;;;;;;4.28;83.78;102809.31;5008436;28;20042;-66
2021/12/20 07:38:03;;;;;;;17.60;4.53;;;;;;;4.30;83.17;102813.53;4993904;28;20026;-65
2021/12/20 07:40:29;;;;;;;20.60;4.72;;;;;;;4.27;83.13;102805.91;4991132;28;20398;-66
2021/12/20 07:42:54;;;;;;;22.90;5.07;;;;;;;4.32;83.08;102808.34;4998512;28;20494;-65
2021/12/20 07:45:20;;;;;;;21.27;5.13;;;;;;;4.26;83.00;102805.06;4994269;28;20085;-66
2021/12/20 07:47:48;;;;;;;18.55;4.85;;;;;;;4.25;82.98;102807.66;5006736;28;20075;-65
2021/12/20 07:50:14;;;;;;;19.90;4.78;;;;;;;4.23;83.15;102810.25;5009387;28;20203;-64
2021/12/20 07:52:40;;;;;;;23.95;5.55;;;;;;;4.25;82.91;102808.50;5008410;28;20079;-66
2021/12/20 07:55:06;;;;;;;18.95;5.10;;;;;;;4.24;83.15;102817.09;4997449;28;20030;-66
2021/12/20 07:57:31;;;;;;;20.67;4.47;;;;;;;4.23;83.25;102810.25;5003229;28;20549;-65
2021/12/20 07:59:57;;;;;;;23.58;4.90;;;;;;;4.25;83.30;102818.78;5007994;28;20034;-65
2021/12/20 08:02:22;;;;;;;19.92;5.35;;;;;;;4.24;83.31;102817.09;4982098;28;20061;-66
2021/12/20 08:04:50;;;;;;;25.60;6.85;;;;;;;4.22;83.85;102818.00;5009308;28;20532;-66
2021/12/20 08:07:18;;;;;;;25.83;7.60;;;;;;;4.25;83.86;102817.94;5011145;28;20113;-69
2021/12/20 08:09:43;;;;;;;20.73;5.10;;;;;;;4.25;83.56;102816.22;5004632;28;20030;-65
2021/12/20 08:12:09;;;;;;;19.92;5.25;;;;;;;4.26;83.52;102817.91;5006191;28;20073;-65
2021/12/20 08:14:34;;;;;;;22.70;6.10;;;;;;;4.23;83.67;102817.94;5002372;28;20041;-65
2021/12/20 08:17:00;;;;;;;20.05;5.32;;;;;;;4.26;83.28;102828.16;5007782;28;20064;-65
2021/12/20 08:19:25;;;;;;;24.80;5.38;;;;;;;4.25;83.91;102823.91;4999767;28;20140;-65
2021/12/20 08:21:50;;;;;;;19.80;5.57;;;;;;;4.29;84.20;102823.81;5009289;28;20053;-66
2021/12/20 08:24:16;;;;;;;22.42;4.57;;;;;;;4.30;83.24;102826.38;4999201;28;20026;-66
2021/12/20 08:26:41;;;;;;;18.85;4.55;;;;;;;4.31;83.40;102829.78;5005559;28;20025;-65
2021/12/20 08:29:08;;;;;;;20.15;5.40;;;;;;;4.33;83.81;102840.88;5010846;28;20506;-65
2021/12/20 08:31:36;;;;;;;24.25;5.63;;;;;;;4.30;84.37;102828.06;5012636;28;20030;-65
2021/12/20 08:34:02;;;;;;;20.40;5.35;;;;;;;4.30;83.40;102825.50;5004182;28;20116;-66
2021/12/20 08:36:27;;;;;;;21.58;5.30;;;;;;;4.32;83.65;102819.47;5003636;28;20033;-65
2021/12/20 08:38:52;;;;;;;20.42;4.95;;;;;;;4.34;83.56;102822.00;4995217;28;20034;-65
2021/12/20 08:41:18;;;;;;;20.55;4.93;;;;;;;4.33;83.77;102831.44;5011431;28;20056;-65
2021/12/20 08:43:43;;;;;;;19.75;4.97;;;;;;;4.35;83.94;102839.09;5012433;28;20097;-65
2021/12/20 08:46:10;;;;;;;21.67;5.15;;;;;;;4.34;83.32;102827.97;5008433;28;20490;-66
2021/12/20 08:48:36;;;;;;;18.48;4.90;;;;;;;4.34;83.60;102833.13;4991876;28;20030;-68
2021/12/20 08:51:02;;;;;;;19.85;4.85;;;;;;;4.33;83.62;102833.16;5001398;28;20069;-66
2021/12/20 08:53:29;;;;;;;22.15;4.68;;;;;;;4.37;83.54;102829.66;5007255;28;20044;-68
2021/12/20 08:55:54;;;;;;;19.88;4.78;;;;;;;4.37;82.87;102837.34;5006736;28;20030;-66
2021/12/20 08:58:21;;;;;;;20.00;5.57;;;;;;;4.38;83.13;102839.03;5006137;28;20604;-65
2021/12/20 09:00:46;;;;;;;16.33;5.03;;;;;;;4.41;83.51;102836.38;5003571;28;20038;-65
2021/12/20 09:03:12;;;;;;;19.63;5.43;;;;;;;4.42;82.96;102835.53;5005790;28;20686;-65
2021/12/20 09:05:37;;;;;;;19.60;5.45;;;;;;;4.39;82.68;102833.00;5012191;28;20116;-65
2021/12/20 09:08:04;;;;;;;18.55;5.18;;;;;;;4.46;82.54;102837.13;5011608;28;20427;-65
2021/12/20 09:10:32;;;;;;;17.92;4.93;;;;;;;4.44;83.32;102838.91;4990471;28;20444;-65
2021/12/20 09:12:58;;;;;;;19.33;4.82;;;;;;;4.50;82.81;102838.75;4990132;28;20018;-66
2021/12/20 09:15:24;;;;;;;20.13;5.25;;;;;;;4.52;83.00;102842.13;5006739;28;20063;-65
2021/12/20 09:17:52;;;;;;;18.77;5.10;;;;;;;4.53;83.11;102848.97;5007053;28;20065;-65
2021/12/20 09:20:21;;;;;;;19.05;6.20;;;;;;;4.54;82.77;102850.66;5005450;28;20029;-65
2021/12/20 09:22:53;;;;;;;18.92;6.25;;;;;;;4.57;82.59;102850.56;5001545;28;20108;-66
2021/12/20 09:25:24;;;;;;;18.33;5.40;;;;;;;4.59;81.54;102848.81;5008734;28;20057;-65
2021/12/20 09:27:50;;;;;;;20.52;5.70;;;;;;;4.62;81.85;102858.16;5007758;28;20590;-65
2021/12/20 09:30:17;;;;;;;20.73;4.53;;;;;;;4.61;82.11;102852.19;5007780;28;20034;-66
2021/12/20 09:32:43;;;;;;;21.85;5.15;;;;;;;4.63;81.78;102854.72;5009954;28;20029;-65
2021/12/20 09:35:09;;;;;;;17.67;4.05;;;;;;;4.65;81.45;102863.25;5010171;28;20029;-65
2021/12/20 09:37:36;;;;;;;19.65;4.20;;;;;;;4.66;81.12;102852.91;4993570;28;20026;-65
2021/12/20 09:40:03;;;;;;;16.77;4.18;;;;;;;4.67;81.10;102858.91;5009996;28;20036;-65
2021/12/20 09:42:33;;;;;;;18.25;4.20;;;;;;;4.68;81.71;102858.84;5008044;28;20497;-66
2021/12/20 09:45:00;;;;;;;17.92;3.97;;;;;;;4.68;81.66;102869.13;5009324;28;20129;-65
2021/12/20 09:47:30;;;;;;;16.60;4.25;;;;;;;4.71;82.31;102869.06;5010624;28;20100;-65
2021/12/20 09:49:56;;;;;;;16.70;4.00;;;;;;;4.72;82.40;102865.63;5009598;28;20108;-65
2021/12/20 09:52:22;;;;;;;18.58;4.15;;;;;;;4.75;81.37;102868.09;5010046;28;20032;-65
2021/12/20 09:54:47;;;;;;;19.00;4.50;;;;;;;4.73;81.79;102867.31;5002134;28;20514;-65
2021/12/20 09:57:16;;;;;;;16.67;4.38;;;;;;;4.77;81.67;102868.94;5008909;28;20049;-65
2021/12/20 09:59:42;;;;;;;21.88;4.13;;;;;;;4.80;81.99;102873.97;5008211;28;20037;-65
2021/12/20 10:02:09;;;;;;;19.70;4.35;;;;;;;4.82;81.68;102873.09;4999453;28;20041;-65
2021/12/20 10:04:35;;;;;;;20.02;4.35;;;;;;;4.84;82.03;102873.91;5000496;28;20022;-66
2021/12/20 10:07:02;;;;;;;18.67;4.68;;;;;;;4.87;82.19;102873.81;5000283;28;20037;-65
2021/12/20 10:09:31;;;;;;;20.90;4.68;;;;;;;4.89;81.78;102877.22;4994415;28;20424;-66
2021/12/20 10:12:24;;;;;;;15.52;4.65;;;;;;;4.95;81.70;102874.50;4994490;28;20026;-65
2021/12/20 10:15:02;;;;;;;16.17;5.22;;;;;;;4.94;81.76;102870.25;4985904;28;20038;-65
2021/12/20 10:17:50;;;;;;;16.13;4.47;;;;;;;4.98;81.84;102866.69;4988153;28;20155;-65
2021/12/20 10:20:23;;;;;;;18.27;4.53;;;;;;;4.97;81.69;102867.56;4996286;28;20311;-65
2021/12/20 10:22:49;;;;;;;19.48;4.93;;;;;;;4.99;81.68;102868.41;5009025;28;20516;-65
2021/12/20 10:25:29;;;;;;;16.20;4.10;;;;;;;5.01;81.07;102871.75;4990146;28;20121;-65
2021/12/20 10:28:10;;;;;;;17.15;4.75;;;;;;;5.02;81.11;102865.72;4996076;28;20069;-65
2021/12/20 10:30:40;;;;;;;19.80;5.50;;;;;;;5.00;81.60;102870.09;5007810;28;20567;-65
2021/12/20 10:33:10;;;;;;;16.73;4.30;;;;;;;5.03;81.22;102865.69;5004376;28;20037;-65
2021/12/20 10:35:39;;;;;;;15.60;3.83;;;;;;;5.06;80.51;102869.94;5010431;28;20034;-66
2021/12/20 10:38:21;;;;;;;15.80;4.32;;;;;;;5.08;81.00;102865.56;5009911;28;20013;-65
2021/12/20 10:40:52;;;;;;;17.15;5.20;;;;;;;5.02;80.80;102858.88;4993456;28;20038;-65
2021/12/20 10:43:32;;;;;;;14.80;4.07;;;;;;;5.13;81.29;102861.16;5006482;28;20466;-65
2021/12/20 10:45:58;;;;;;;16.27;4.63;;;;;;;5.12;80.53;102862.03;4997330;28;20479;-65
2021/12/20 10:48:32;;;;;;;18.63;4.70;;;;;;;5.17;80.17;102873.06;5001382;28;20040;-66
2021/12/20 10:50:58;;;;;;;16.67;4.15;;;;;;;5.19;80.82;102870.44;5002843;28;20550;-65
2021/12/20 10:53:25;;;;;;;15.38;4.00;;;;;;;5.16;79.28;102867.94;5004353;28;20061;-66
2021/12/20 10:55:54;;;;;;;18.85;4.57;;;;;;;5.21;80.35;102868.66;5004195;28;20057;-65
2021/12/20 10:58:28;;;;;;;16.48;4.43;;;;;;;5.22;80.50;102866.06;4998507;28;20378;-65
2021/12/20 11:01:17;;;;;;;15.77;4.47;;;;;;;5.28;80.44;102860.75;5001928;28;20324;-65
2021/12/20 11:03:53;;;;;;;17.00;4.78;;;;;;;5.25;79.53;102871.13;4985324;28;20026;-66
2021/12/20 11:11:30;;;;;;;15.50;4.75;;;;;;;5.28;80.01;102855.63;4991960;28;20066;-65
2021/12/20 11:13:58;;;;;;;21.70;5.28;;;;;;;5.29;80.26;102852.16;5007192;28;20029;-65
2021/12/20 11:16:36;;;;;;;18.67;4.60;;;;;;;5.37;80.12;102858.81;4998900;28;20034;-66
2021/12/20 11:19:08;;;;;;;16.38;4.20;;;;;;;5.37;79.92;102859.66;5004187;28;20034;-65
2021/12/20 11:21:34;;;;;;;17.13;4.28;;;;;;;5.37;79.10;102856.25;5005873;28;20496;-65
2021/12/20 11:24:00;;;;;;;15.85;4.97;;;;;;;5.40;79.56;102863.91;5003140;28;20029;-65
2021/12/20 11:26:27;;;;;;;17.63;4.55;;;;;;;5.39;79.85;102859.59;5004122;28;20500;-66
2021/12/20 11:28:55;;;;;;;11.98;3.60;;;;;;;5.39;78.64;102851.88;5002890;28;20021;-65
2021/12/20 11:31:20;;;;;;;16.58;4.57;;;;;;;5.41;78.84;102847.56;5005943;28;20053;-66
2021/12/20 11:33:45;;;;;;;14.45;3.83;;;;;;;5.47;78.83;102847.41;4996029;28;20037;-65
2021/12/20 11:36:12;;;;;;;16.23;3.97;;;;;;;5.42;77.74;102846.66;5003360;28;20033;-65
2021/12/20 11:38:37;;;;;;;16.55;3.92;;;;;;;5.44;79.01;102852.59;4999068;28;20481;-66
2021/12/20 11:41:03;;;;;;;17.30;4.00;;;;;;;5.43;79.05;102848.34;5012644;28;20034;-65
2021/12/20 11:43:29;;;;;;;17.42;3.65;;;;;;;5.40;78.81;102853.59;5010208;28;20028;-66